Time;durP1;ratioP1;P1;durP2;ratioP2;P2;SDS_P1;SDS_P2;PMS_P1;PMS_P2;Temp;Humidity;BMP_temperature;BMP_pressure;BME280_temperature;BME280_humidity;BME280_pressure;Samples;Min_cycle;Max_cycle;Signal;HPM_P1;HPM_P2
2021/01/11 00:00:43;;;;;;;6.47;2.97;;;;;;;-0.91;78.06;98297.66;4917912;29;20107;-84
2021/01/11 00:03:08;;;;;;;3.55;2.78;;;;;;;-1.01;78.16;98259.72;4920842;29;20016;-85
2021/01/11 00:05:34;;;;;;;4.70;2.30;;;;;;;-1.15;77.69;98264.31;4922154;29;20016;-87
2021/01/11 00:08:00;;;;;;;9.65;4.63;;;;;;;-1.10;77.65;98269.84;4923993;29;20035;-85
2021/01/11 00:10:25;;;;;;;;;;;;;;;-0.90;76.97;98293.09;4942406;29;20020;-85
2021/01/11 00:12:51;;;;;;;3.63;2.72;;;;;;;-1.25;77.06;98258.56;4923303;29;19986;-88
2021/01/11 00:15:19;;;;;;;2.83;2.15;;;;;;;-1.23;76.72;98255.69;4923190;29;20817;-85
2021/01/11 00:17:44;;;;;;;5.65;2.55;;;;;;;-1.22;76.16;98250.09;4924956;29;20036;-85
2021/01/11 00:20:11;;;;;;;4.82;2.65;;;;;;;-1.30;76.70;98258.41;4925038;29;20063;-84
2021/01/11 00:22:37;;;;;;;4.30;3.28;;;;;;;-1.21;75.81;98258.97;4924163;29;20024;-84
2021/01/11 00:25:06;;;;;;;4.28;2.65;;;;;;;-1.21;76.39;98262.50;4937894;29;20117;-86
2021/01/11 00:27:31;;;;;;;5.30;3.30;;;;;;;-1.14;75.51;98273.19;4941094;29;20028;-84
2021/01/11 00:29:57;;;;;;;4.82;3.05;;;;;;;-0.94;75.72;98295.38;4941078;29;20033;-85
2021/01/11 00:32:23;;;;;;;;;;;;;;;-0.99;76.03;98286.34;4941166;29;20508;-85
2021/01/11 00:34:48;;;;;;;4.05;2.67;;;;;;;-1.42;76.09;98244.00;4922762;29;19922;-83
2021/01/11 00:37:14;;;;;;;2.88;2.60;;;;;;;-0.98;75.82;98307.59;4922565;29;20031;-83
2021/01/11 00:39:40;;;;;;;3.88;3.00;;;;;;;-1.12;74.27;98263.06;4939982;29;20039;-84
2021/01/11 00:42:05;;;;;;;;;;;;;;;-0.85;74.22;98290.63;4924344;29;20041;-88
2021/01/11 00:44:31;;;;;;;2.92;2.15;;;;;;;-0.91;74.93;98280.72;4923692;29;20018;-86
2021/01/11 00:47:04;;;;;;;4.25;2.20;;;;;;;-1.23;75.23;98259.22;4923222;29;20107;-86
2021/01/11 00:49:30;;;;;;;3.42;2.78;;;;;;;-1.27;75.30;98255.28;4937426;29;20032;-86
2021/01/11 00:51:55;;;;;;;4.15;2.55;;;;;;;-1.11;75.06;98276.28;4921831;29;20072;-89
2021/01/11 00:54:21;;;;;;;4.78;2.80;;;;;;;-1.30;75.18;98265.63;4922610;29;20024;-86
2021/01/11 00:56:47;;;;;;;3.83;2.63;;;;;;;-1.05;75.47;98301.44;4939885;29;20020;-87
2021/01/11 00:59:13;;;;;;;3.85;2.97;;;;;;;-1.21;75.44;98278.59;4940753;29;20045;-86
2021/01/11 01:01:46;;;;;;;;;;;;;;;-1.10;75.43;98302.06;4922390;29;20159;-87
2021/01/11 01:04:12;;;;;;;3.78;2.30;;;;;;;-1.26;75.46;98261.47;4924340;29;19903;-86
2021/01/11 01:06:38;;;;;;;5.47;2.88;;;;;;;-1.29;75.42;98272.66;4939174;29;20028;-87
2021/01/11 01:09:03;;;;;;;5.82;3.13;;;;;;;-1.48;75.87;98260.94;4921888;29;20055;-84
2021/01/11 01:11:29;;;;;;;5.50;2.92;;;;;;;-1.44;75.88;98264.03;4932032;29;20028;-88
2021/01/11 01:13:55;;;;;;;3.45;2.55;;;;;;;-1.43;75.56;98271.84;4916529;29;20052;-85
2021/01/11 01:16:27;;;;;;;8.50;3.47;;;;;;;-1.24;76.27;98324.63;4941729;29;20040;-85
2021/01/11 01:18:54;;;;;;;3.55;2.08;;;;;;;-1.27;76.20;98322.38;4925245;29;20028;-85
2021/01/11 01:21:20;;;;;;;4.10;3.08;;;;;;;-1.52;76.34;98272.28;4942295;29;20028;-86
2021/01/11 01:23:46;;;;;;;4.18;2.78;;;;;;;-1.52;76.93;98274.97;4942002;29;20048;-87
2021/01/11 01:26:11;;;;;;;3.88;2.70;;;;;;;-1.54;76.49;98291.28;4941691;29;20020;-86
2021/01/11 01:28:37;;;;;;;3.28;2.63;;;;;;;-1.48;76.50;98281.56;4925120;29;20036;-85
2021/01/11 01:31:03;;;;;;;3.75;2.80;;;;;;;-1.44;76.75;98280.94;4925196;29;20043;-84
2021/01/11 01:33:28;;;;;;;;;;;;;;;-1.23;76.10;98307.50;4925546;29;20048;-84
2021/01/11 01:35:54;;;;;;;3.03;1.98;;;;;;;-1.42;76.09;98286.91;4941363;29;19958;-84
2021/01/11 01:38:19;;;;;;;2.90;1.98;;;;;;;-1.56;76.38;98282.59;4941322;29;20035;-85
2021/01/11 01:40:48;;;;;;;5.28;2.78;;;;;;;-1.48;76.28;98294.97;4925225;29;20016;-84
2021/01/11 01:43:14;;;;;;;6.75;3.38;;;;;;;-1.51;76.17;98288.19;4925215;29;20036;-87
2021/01/11 01:45:40;;;;;;;6.63;2.17;;;;;;;-1.48;76.19;98285.09;4941258;29;20019;-85
2021/01/11 01:48:06;;;;;;;;;;;;;;;-1.26;75.75;98321.34;4925364;29;20024;-84
2021/01/11 01:50:32;;;;;;;4.88;2.83;;;;;;;-1.54;76.27;98285.94;4924997;29;19919;-88
2021/01/11 01:52:58;;;;;;;4.32;2.80;;;;;;;-1.57;76.50;98289.03;4924639;29;20080;-87
2021/01/11 01:55:24;;;;;;;3.40;2.33;;;;;;;-1.55;75.87;98278.91;4924915;29;20020;-88
2021/01/11 01:57:55;;;;;;;4.85;2.92;;;;;;;-1.45;75.64;98289.19;4924534;29;20032;-85
2021/01/11 02:00:22;;;;;;;4.07;2.42;;;;;;;-1.22;75.74;98311.81;4940384;29;20028;-85
2021/01/11 02:02:48;;;;;;;4.25;3.40;;;;;;;-1.49;75.72;98280.75;4940356;29;20008;-87
2021/01/11 02:05:13;;;;;;;2.72;2.47;;;;;;;-1.40;75.57;98298.25;4924490;29;20012;-86
2021/01/11 02:07:39;;;;;;;;;;;;;;;-1.24;76.13;98318.44;4940727;29;20068;-90
2021/01/11 02:10:26;;;;;;;5.03;3.50;;;;;;;-1.22;75.48;98319.84;4923600;29;19910;-86
2021/01/11 02:13:30;;;;;;;3.50;2.50;;;;;;;-1.52;75.80;98289.22;4940173;29;20028;-87
2021/01/11 02:16:34;;;;;;;2.47;1.95;;;;;;;-1.28;75.93;98315.34;4924267;29;20024;-90
2021/01/11 02:19:18;;;;;;;4.25;2.40;;;;;;;-1.37;75.50;98305.88;4924193;29;20051;-87
2021/01/11 02:21:59;;;;;;;6.20;3.35;;;;;;;-1.28;76.02;98307.28;4940588;29;20016;-84
2021/01/11 02:24:40;;;;;;;3.50;2.30;;;;;;;-1.26;75.62;98304.41;4941181;29;20032;-86
2021/01/11 02:27:34;;;;;;;5.72;2.95;;;;;;;-1.25;75.28;98311.41;4924348;29;20027;-85
2021/01/11 02:30:03;;;;;;;6.90;3.05;;;;;;;-1.52;74.75;98273.13;4924110;29;20133;-83
2021/01/11 02:32:30;;;;;;;3.03;2.38;;;;;;;-1.24;75.43;98302.31;4923100;29;20032;-86
2021/01/11 02:34:57;;;;;;;4.45;3.30;;;;;;;-1.46;74.83;98288.38;4924092;29;20036;-84
2021/01/11 02:37:24;;;;;;;2.55;1.95;;;;;;;-1.61;74.67;98263.66;4940496;29;20019;-84
2021/01/11 02:39:51;;;;;;;5.10;3.25;;;;;;;-1.18;74.37;98313.03;4924130;29;20051;-84
2021/01/11 02:42:17;;;;;;;5.47;3.50;;;;;;;-1.44;74.27;98267.50;4924098;29;20051;-88
2021/01/11 02:44:43;;;;;;;2.33;2.00;;;;;;;-1.32;73.72;98283.78;4922120;29;20016;-89
2021/01/11 02:47:08;;;;;;;;;;;;;;;-1.12;73.10;98298.78;4923638;29;20043;-84
2021/01/11 02:49:41;;;;;;;2.50;2.13;;;;;;;-1.37;73.37;98287.09;4927637;29;19950;-85
2021/01/11 02:52:42;;;;;;;4.15;2.72;;;;;;;-1.33;73.08;98282.97;4944647;29;20031;-84
2021/01/11 02:55:18;;;;;;;4.00;2.30;;;;;;;-1.28;73.23;98287.69;4945112;29;20016;-84
2021/01/11 02:57:48;;;;;;;;;;;;;;;-1.08;73.09;98297.31;4928764;29;20008;-85
2021/01/11 03:00:17;;;;;;;2.13;1.88;;;;;;;-1.37;73.04;98259.44;4944512;29;19911;-82
2021/01/11 03:02:46;;;;;;;2.80;2.08;;;;;;;-1.22;72.57;98276.94;4944408;29;20028;-84
2021/01/11 03:05:13;;;;;;;3.88;2.25;;;;;;;-1.28;72.49;98264.38;4944191;29;20055;-85
2021/01/11 03:07:51;;;;;;;3.28;1.90;;;;;;;-1.06;72.68;98291.72;4927814;29;20023;-82
2021/01/11 03:10:20;;;;;;;3.30;2.38;;;;;;;-1.31;73.12;98264.78;4927784;29;20043;-85
2021/01/11 03:12:46;;;;;;;3.17;2.08;;;;;;;-1.17;72.98;98277.13;4927412;29;20009;-86
2021/01/11 03:15:12;;;;;;;2.50;2.30;;;;;;;-1.30;73.23;98271.81;4927668;29;20028;-85
2021/01/11 03:17:38;;;;;;;3.08;2.20;;;;;;;-1.08;73.39;98313.44;4943936;29;20050;-85
2021/01/11 03:20:04;;;;;;;6.10;3.22;;;;;;;-1.34;73.43;98275.94;4943734;29;20075;-84
2021/01/11 03:22:29;;;;;;;3.42;2.40;;;;;;;-1.36;73.46;98274.50;4943311;29;20313;-85
2021/01/11 03:24:57;;;;;;;5.53;2.80;;;;;;;-1.09;73.67;98301.03;4944321;29;20016;-85
2021/01/11 03:27:23;;;;;;;3.40;2.53;;;;;;;-1.07;73.47;98298.16;4943740;29;20099;-85
2021/01/11 03:29:48;;;;;;;4.32;3.33;;;;;;;-1.30;73.80;98277.19;4943376;29;20028;-87
2021/01/11 03:32:14;;;;;;;4.40;2.60;;;;;;;-1.03;73.47;98295.88;4943703;29;20013;-86
2021/01/11 03:34:40;;;;;;;6.15;2.63;;;;;;;-1.29;73.59;98268.09;4943242;29;20040;-85
2021/01/11 03:37:05;;;;;;;2.08;1.88;;;;;;;-1.27;73.15;98263.34;4943254;29;20024;-84
2021/01/11 03:39:30;;;;;;;;;;;;;;;-1.04;73.55;98297.72;4927151;29;20036;-84
2021/01/11 03:41:56;;;;;;;2.28;2.08;;;;;;;-1.34;73.70;98269.75;4927354;29;19970;-85
2021/01/11 03:44:21;;;;;;;;;;;;;;;-1.04;74.03;98292.34;4943650;29;20040;-86
2021/01/11 03:46:47;;;;;;;6.65;2.58;;;;;;;-1.32;73.42;98260.47;4943660;29;19950;-83
2021/01/11 03:49:12;;;;;;;;;;;;;;;-1.02;73.46;98289.44;4927470;29;20036;-84
2021/01/11 03:51:38;;;;;;;4.65;2.53;;;;;;;-1.35;73.82;98258.22;4943630;29;19903;-82
2021/01/11 03:54:03;;;;;;;5.00;3.17;;;;;;;-1.35;73.96;98244.81;4927143;29;20016;-83
2021/01/11 03:56:29;;;;;;;2.88;2.55;;;;;;;-1.35;73.73;98271.63;4927642;29;20019;-82
2021/01/11 03:58:54;;;;;;;;;;;;;;;-1.09;74.01;98290.28;4943764;29;20008;-84
2021/01/11 04:01:20;;;;;;;3.42;2.67;;;;;;;-1.32;73.66;98267.69;4927276;29;19930;-80
2021/01/11 04:03:47;;;;;;;5.95;3.20;;;;;;;-1.20;73.25;98282.09;4926995;29;20016;-83
2021/01/11 04:06:19;;;;;;;2.55;2.25;;;;;;;-1.40;74.05;98260.69;4927252;29;20087;-82
2021/01/11 04:08:45;;;;;;;3.88;3.20;;;;;;;-1.31;74.57;98277.38;4927109;29;20024;-84
2021/01/11 04:11:12;;;;;;;6.32;3.40;;;;;;;-1.38;74.12;98266.66;4943202;29;20043;-82
2021/01/11 04:13:38;;;;;;;5.50;2.75;;;;;;;-1.30;73.58;98270.97;4942917;29;20037;-87
2021/01/11 04:16:06;;;;;;;4.90;2.42;;;;;;;-1.31;73.48;98264.78;4926598;29;20023;-85
2021/01/11 04:18:31;;;;;;;4.07;2.70;;;;;;;-1.31;73.56;98272.00;4943089;29;20066;-84
2021/01/11 04:20:57;;;;;;;5.20;3.42;;;;;;;-1.22;73.00;98282.28;4943017;29;20012;-83
2021/01/11 04:23:22;;;;;;;;;;;;;;;-1.08;73.13;98297.31;4927004;29;20024;-86
2021/01/11 04:25:48;;;;;;;5.00;3.03;;;;;;;-1.37;73.37;98270.19;4943364;29;19927;-84
2021/01/11 04:28:13;;;;;;;;;;;;;;;-1.01;72.53;98301.84;4942911;29;20044;-84
2021/01/11 04:30:39;;;;;;;3.88;2.45;;;;;;;-1.31;72.72;98275.53;4926233;29;19934;-84
2021/01/11 04:33:04;;;;;;;;;;;;;;;-1.01;72.82;98304.53;4926889;29;20037;-84
2021/01/11 04:35:31;;;;;;;3.83;2.55;;;;;;;-1.31;72.66;98272.84;4942839;29;19903;-83
2021/01/11 04:37:59;;;;;;;3.00;2.17;;;;;;;-1.35;72.18;98273.50;4942713;29;20012;-84
2021/01/11 04:40:25;;;;;;;3.22;2.25;;;;;;;-1.33;72.00;98268.72;4942883;29;20051;-84
2021/01/11 04:42:56;;;;;;;3.80;2.15;;;;;;;-1.35;71.69;98277.00;4926196;29;20004;-83
2021/01/11 04:45:23;;;;;;;4.55;2.72;;;;;;;-1.30;71.91;98282.53;4926438;29;20080;-84
2021/01/11 04:47:55;;;;;;;3.92;3.00;;;;;;;-1.20;71.15;98282.94;4942713;29;20017;-85
2021/01/11 04:50:22;;;;;;;2.40;2.15;;;;;;;-1.29;71.67;98278.00;4926326;29;20030;-84
2021/01/11 04:52:49;;;;;;;6.50;3.05;;;;;;;-1.30;71.16;98277.19;4942436;29;20043;-84
2021/01/11 04:55:15;;;;;;;3.72;2.28;;;;;;;-0.96;71.51;98312.75;4942877;29;20019;-85
2021/01/11 04:57:52;;;;;;;3.45;2.25;;;;;;;-1.25;71.60;98287.25;4942440;29;20020;-84
2021/01/11 05:00:29;;;;;;;5.38;2.72;;;;;;;-1.23;71.63;98290.56;4926201;29;20009;-84
2021/01/11 05:03:01;;;;;;;5.15;3.03;;;;;;;-1.33;72.13;98288.34;4926012;29;20023;-85
2021/01/11 05:05:29;;;;;;;3.80;2.15;;;;;;;-1.33;72.14;98298.22;4926172;29;20019;-85
2021/01/11 05:07:55;;;;;;;3.00;2.78;;;;;;;-1.34;72.84;98299.25;4926004;29;20036;-85
2021/01/11 05:10:23;;;;;;;5.57;3.25;;;;;;;-1.36;73.08;98304.84;4942009;29;20011;-85
2021/01/11 05:12:56;;;;;;;3.70;2.58;;;;;;;-1.37;72.78;98300.50;4942119;29;20019;-84
2021/01/11 05:15:22;;;;;;;4.55;2.88;;;;;;;-1.43;73.62;98309.41;4920680;29;20064;-85
2021/01/11 05:17:48;;;;;;;4.95;2.47;;;;;;;-1.42;73.49;98294.97;4942194;29;20012;-83
2021/01/11 05:20:15;;;;;;;5.40;3.55;;;;;;;-1.43;73.44;98304.03;4925211;29;20084;-84
2021/01/11 05:22:47;;;;;;;3.97;3.15;;;;;;;-1.44;73.22;98310.44;4942150;29;20031;-84
2021/01/11 05:25:21;;;;;;;4.70;3.70;;;;;;;-1.39;73.41;98309.81;4942251;29;20036;-85
2021/01/11 05:28:05;;;;;;;5.38;3.25;;;;;;;-1.42;72.89;98311.06;4941773;29;20097;-85
2021/01/11 05:30:40;;;;;;;5.88;3.00;;;;;;;-1.45;73.55;98306.13;4925811;29;20036;-84
2021/01/11 05:33:25;;;;;;;7.80;3.53;;;;;;;-1.50;73.62;98303.22;4941940;29;20040;-82
2021/01/11 05:36:12;;;;;;;5.30;3.17;;;;;;;-1.47;72.99;98315.41;4921143;29;20040;-84
2021/01/11 05:38:39;;;;;;;6.15;3.53;;;;;;;-1.49;73.16;98306.72;4925518;29;20020;-84
2021/01/11 05:41:18;;;;;;;6.10;3.38;;;;;;;-1.49;73.19;98307.56;4925229;29;20024;-84
2021/01/11 05:44:06;;;;;;;4.90;2.63;;;;;;;-1.47;72.60;98313.53;4924119;29;20065;-85
2021/01/11 05:46:32;;;;;;;4.70;3.03;;;;;;;-1.36;72.92;98320.94;4940854;29;20032;-84
2021/01/11 05:49:11;;;;;;;2.88;2.53;;;;;;;-1.38;72.91;98327.56;4922378;29;20039;-87
2021/01/11 05:51:38;;;;;;;6.28;2.80;;;;;;;-1.40;73.60;98330.44;4937741;29;20112;-87
2021/01/11 05:54:08;;;;;;;4.22;2.90;;;;;;;-1.30;73.91;98343.41;4937721;29;20028;-90
2021/01/11 05:56:51;;;;;;;4.50;3.13;;;;;;;-1.46;74.54;98327.78;4938736;29;20048;-84
2021/01/11 05:59:17;;;;;;;5.53;3.85;;;;;;;-1.46;74.59;98341.19;4911581;29;20048;-85
2021/01/11 06:01:42;;;;;;;6.07;3.85;;;;;;;-1.51;75.83;98339.13;4920306;29;20112;-88
2021/01/11 06:04:08;;;;;;;;;;;;;;;-1.35;76.52;98360.16;4918646;29;20096;-86
2021/01/11 06:06:33;;;;;;;7.85;3.63;;;;;;;-1.37;76.54;98362.19;4921089;29;19919;-85
2021/01/11 06:08:59;;;;;;;;;;;;;;;-1.34;76.83;98361.78;4921089;29;20036;-86
2021/01/11 06:11:27;;;;;;;6.18;3.42;;;;;;;-1.43;76.45;98360.34;4924171;29;19927;-87
2021/01/11 06:13:54;;;;;;;6.55;3.20;;;;;;;-1.35;76.61;98368.22;4923886;29;20044;-88
2021/01/11 06:16:21;;;;;;;5.65;3.08;;;;;;;-1.64;76.50;98320.38;4935179;29;20047;-88
2021/01/11 06:18:51;;;;;;;6.38;3.00;;;;;;;-1.66;75.99;98325.94;4939115;29;20036;-87
2021/01/11 06:21:18;;;;;;;8.85;3.22;;;;;;;-1.31;75.94;98377.47;4927498;29;20024;-85
2021/01/11 06:23:44;;;;;;;4.32;3.35;;;;;;;-1.45;76.10;98353.56;4936795;29;20083;-85
2021/01/11 06:26:30;;;;;;;6.88;4.32;;;;;;;-1.44;76.33;98339.13;4929639;29;20024;-84
2021/01/11 06:28:57;;;;;;;6.70;2.70;;;;;;;-1.36;73.88;98350.44;4934384;29;20048;-87
2021/01/11 06:31:34;;;;;;;4.05;2.95;;;;;;;-1.31;74.03;98349.81;4901156;29;20095;-87
2021/01/11 06:34:00;;;;;;;5.43;3.75;;;;;;;-1.24;73.42;98378.28;4924738;29;20032;-87
2021/01/11 06:36:31;;;;;;;4.78;3.00;;;;;;;-1.43;73.64;98352.31;4916237;29;20084;-83
2021/01/11 06:39:06;;;;;;;7.07;3.88;;;;;;;-1.22;72.87;98370.84;4920176;29;20029;-88
2021/01/11 06:41:32;;;;;;;5.65;4.25;;;;;;;-1.25;73.25;98376.63;4918248;29;20027;-89
2021/01/11 06:44:08;;;;;;;5.30;3.72;;;;;;;-1.26;73.51;98383.03;4919857;29;20020;-88
2021/01/11 06:46:42;;;;;;;6.78;4.32;;;;;;;-1.03;74.21;98381.75;4908972;29;20035;-84
2021/01/11 06:49:30;;;;;;;8.60;4.10;;;;;;;-1.04;72.52;98388.97;4894502;29;20047;-85
2021/01/11 06:52:06;;;;;;;3.90;3.10;;;;;;;-1.09;71.63;98386.06;4915538;29;20112;-85
2021/01/11 06:54:44;;;;;;;6.53;4.22;;;;;;;-1.16;73.01;98383.41;4925563;29;20429;-87
2021/01/11 06:57:16;;;;;;;4.90;3.08;;;;;;;-1.17;72.78;98394.38;4901860;29;20036;-88
2021/01/11 06:59:46;;;;;;;7.40;4.20;;;;;;;-1.18;73.15;98392.72;4883415;29;20119;-81
2021/01/11 07:02:19;;;;;;;3.55;3.15;;;;;;;-1.20;72.95;98400.16;4894055;29;20072;-83
2021/01/11 07:04:45;;;;;;;6.18;3.45;;;;;;;-1.17;71.95;98397.88;4878871;29;20033;-82
2021/01/11 07:07:17;;;;;;;4.78;3.22;;;;;;;-1.21;72.03;98398.50;4894285;29;20032;-82
2021/01/11 07:09:50;;;;;;;5.78;3.50;;;;;;;-1.18;71.85;98398.91;4896199;29;20028;-85
2021/01/11 07:12:20;;;;;;;5.80;3.38;;;;;;;-1.27;72.51;98384.06;4897021;29;20032;-84
2021/01/11 07:15:05;;;;;;;6.57;3.72;;;;;;;-1.13;72.61;98399.09;4899680;29;20040;-83
2021/01/11 07:17:39;;;;;;;3.85;3.03;;;;;;;-1.12;72.07;98402.59;4916659;29;20043;-84
2021/01/11 07:20:07;;;;;;;7.38;3.78;;;;;;;-1.12;72.13;98406.09;4887084;29;20144;-85
2021/01/11 07:22:33;;;;;;;4.65;2.85;;;;;;;-1.10;71.96;98406.72;4897069;29;20032;-84
2021/01/11 07:25:06;;;;;;;6.68;4.00;;;;;;;-1.08;72.28;98396.63;4880683;29;20379;-83
2021/01/11 07:27:31;;;;;;;5.15;3.50;;;;;;;-1.00;72.17;98405.47;4900184;29;20047;-82
2021/01/11 07:29:57;;;;;;;7.25;3.85;;;;;;;-1.02;72.46;98403.00;4928223;29;20048;-85
2021/01/11 07:32:23;;;;;;;3.97;3.30;;;;;;;-0.99;72.37;98407.09;4919925;29;20054;-87
2021/01/11 07:34:48;;;;;;;7.35;3.10;;;;;;;-0.87;72.00;98400.03;4905647;29;20032;-83
2021/01/11 07:37:14;;;;;;;6.20;3.40;;;;;;;-0.86;71.29;98407.91;4901270;29;20095;-84
2021/01/11 07:39:40;;;;;;;6.38;3.85;;;;;;;-0.76;71.23;98418.19;4921411;29;20113;-85
2021/01/11 07:42:07;;;;;;;4.68;3.08;;;;;;;-0.58;71.25;98423.72;4920279;29;20035;-84
2021/01/11 07:44:38;;;;;;;9.63;4.85;;;;;;;-0.86;70.66;98397.16;4918658;29;20036;-86
2021/01/11 07:47:14;;;;;;;6.65;3.50;;;;;;;-0.66;70.28;98419.38;4918123;29;20059;-86
2021/01/11 07:49:48;;;;;;;5.30;3.47;;;;;;;-0.64;70.35;98425.38;4884263;29;20676;-81
2021/01/11 07:52:17;;;;;;;7.63;4.50;;;;;;;-0.63;70.72;98424.31;4887962;29;20490;-83
2021/01/11 07:54:44;;;;;;;8.15;3.90;;;;;;;-0.53;70.18;98431.94;4901855;29;20032;-84
2021/01/11 07:57:14;;;;;;;5.63;3.17;;;;;;;-0.46;69.48;98431.91;4893810;29;20084;-86
2021/01/11 07:59:42;;;;;;;6.13;3.75;;;;;;;-0.49;69.66;98430.47;4896465;29;20047;-87
2021/01/11 08:02:14;;;;;;;5.07;4.20;;;;;;;-0.49;69.33;98435.84;4899911;29;20055;-83
2021/01/11 08:04:41;;;;;;;7.25;4.05;;;;;;;-0.55;69.57;98434.03;4907981;29;20024;-86
2021/01/11 08:07:08;;;;;;;6.07;3.88;;;;;;;-0.56;69.22;98441.25;4921030;29;20024;-83
2021/01/11 08:09:36;;;;;;;5.30;3.60;;;;;;;-0.36;68.71;98446.56;4903066;29;20400;-88
2021/01/11 08:12:09;;;;;;;5.95;3.45;;;;;;;-0.38;68.88;98448.63;4916158;29;20036;-86
2021/01/11 08:14:36;;;;;;;5.88;3.88;;;;;;;-0.35;68.41;98453.59;4918979;29;20111;-86
2021/01/11 08:17:04;;;;;;;6.97;3.90;;;;;;;-0.33;68.88;98462.25;4919579;29;20028;-83
2021/01/11 08:19:30;;;;;;;9.57;4.57;;;;;;;-0.30;67.81;98453.75;4907918;29;20045;-86
2021/01/11 08:21:58;;;;;;;10.25;5.38;;;;;;;-0.43;68.25;98455.66;4901449;29;20044;-85
2021/01/11 08:24:23;;;;;;;7.93;4.75;;;;;;;-0.18;68.42;98460.09;4885002;29;20061;-84
2021/01/11 08:26:56;;;;;;;6.22;3.67;;;;;;;0.15;67.68;98456.41;4900147;29;20036;-85
2021/01/11 08:29:21;;;;;;;7.72;3.88;;;;;;;0.45;66.56;98457.44;4884625;29;20032;-85
2021/01/11 08:31:47;;;;;;;3.92;2.78;;;;;;;0.18;65.74;98445.22;4903035;29;20060;-84
2021/01/11 08:34:13;;;;;;;6.90;3.75;;;;;;;0.13;66.72;98477.28;4901277;29;20035;-84
2021/01/11 08:36:38;;;;;;;;;;;;;;;0.20;66.32;98481.59;4912004;29;20382;-85
2021/01/11 08:39:05;;;;;;;5.50;3.05;;;;;;;0.03;65.65;98493.09;4889857;29;19951;-86
2021/01/11 08:41:36;;;;;;;4.85;3.72;;;;;;;0.04;67.05;98494.72;4899540;29;20088;-84
2021/01/11 08:44:03;;;;;;;6.43;3.88;;;;;;;0.09;66.91;98486.84;4900219;29;20029;-86
2021/01/11 08:46:59;;;;;;;5.40;3.78;;;;;;;0.19;67.65;98492.59;4882201;29;20127;-84
2021/01/11 08:49:24;;;;;;;8.90;3.78;;;;;;;0.34;66.03;98495.81;4885343;29;20044;-85
2021/01/11 08:51:50;;;;;;;8.63;4.40;;;;;;;0.25;67.57;98497.13;4883541;29;20032;-83
2021/01/11 08:54:31;;;;;;;8.02;4.35;;;;;;;0.31;66.28;98499.75;4891655;29;20127;-83
2021/01/11 08:56:58;;;;;;;5.90;3.95;;;;;;;0.13;67.34;98506.88;4887450;29;20386;-84
2021/01/11 08:59:25;;;;;;;4.75;3.65;;;;;;;0.11;67.45;98511.66;4910045;29;20024;-86
2021/01/11 09:01:53;;;;;;;6.25;4.22;;;;;;;-0.05;68.25;98512.97;4907130;29;20088;-85
2021/01/11 09:04:35;;;;;;;7.95;3.80;;;;;;;-0.07;67.98;98509.69;4893950;29;20024;-86
2021/01/11 09:07:03;;;;;;;5.75;3.30;;;;;;;-0.10;68.29;98520.88;4907219;29;20079;-83
2021/01/11 09:09:30;;;;;;;7.78;4.70;;;;;;;-0.03;68.03;98527.03;4910331;29;20036;-86
2021/01/11 09:12:06;;;;;;;8.55;4.28;;;;;;;0.09;67.98;98521.81;4898310;29;20062;-86
2021/01/11 09:14:51;;;;;;;5.10;4.13;;;;;;;0.08;67.75;98528.22;4898855;29;20609;-90
2021/01/11 09:17:25;;;;;;;5.45;3.55;;;;;;;0.04;67.36;98535.06;4918879;29;20040;-87
2021/01/11 09:19:50;;;;;;;10.15;4.75;;;;;;;-0.04;67.02;98518.16;4897819;29;20032;-88
2021/01/11 09:22:15;;;;;;;8.02;4.28;;;;;;;0.10;67.78;98536.88;4903385;29;20021;-88
2021/01/11 09:24:45;;;;;;;4.57;3.25;;;;;;;0.07;67.25;98531.94;4914489;29;20013;-88
2021/01/11 09:27:11;;;;;;;5.93;4.15;;;;;;;0.12;66.58;98524.06;4909352;29;20065;-85
2021/01/11 09:29:37;;;;;;;8.63;4.97;;;;;;;0.06;65.80;98528.44;4918227;29;20008;-91
2021/01/11 09:32:04;;;;;;;6.43;4.05;;;;;;;0.07;66.04;98529.25;4925306;29;20004;-88
2021/01/11 09:34:29;;;;;;;7.13;3.78;;;;;;;0.31;65.67;98533.91;4903006;29;20032;-88
2021/01/11 09:36:55;;;;;;;4.43;3.45;;;;;;;0.35;65.14;98532.41;4914519;29;20115;-90
2021/01/11 09:39:20;;;;;;;;;;;;;;;0.17;65.25;98537.69;4930315;29;20020;-88
2021/01/11 09:41:51;;;;;;;5.50;3.78;;;;;;;0.09;64.83;98516.44;4922523;29;19907;-88
2021/01/11 09:44:18;;;;;;;6.57;4.30;;;;;;;0.10;65.92;98547.66;4903155;29;20028;-87
2021/01/11 09:46:46;;;;;;;5.72;4.00;;;;;;;0.11;65.36;98538.53;4934107;29;20123;-87
2021/01/11 09:49:12;;;;;;;8.73;3.63;;;;;;;0.21;64.81;98537.06;4916147;29;20043;-89
2021/01/11 09:51:37;;;;;;;6.28;4.10;;;;;;;0.24;65.42;98536.63;4907537;29;20032;-92
2021/01/11 09:54:04;;;;;;;8.02;3.88;;;;;;;0.32;65.61;98535.53;4922703;29;20024;-91
2021/01/11 09:56:29;;;;;;;5.70;3.75;;;;;;;0.40;65.35;98538.00;4919687;29;20039;-85
2021/01/11 09:58:54;;;;;;;5.78;2.95;;;;;;;0.41;63.79;98545.00;4921576;29;20049;-84
2021/01/11 10:01:20;;;;;;;;;;;;;;;0.32;64.27;98528.28;4903852;29;20024;-87
2021/01/11 10:03:47;;;;;;;6.97;3.88;;;;;;;0.26;64.99;98531.00;4903939;29;19962;-89
2021/01/11 10:06:13;;;;;;;7.60;4.32;;;;;;;0.52;64.36;98530.88;4921742;29;20025;-85
2021/01/11 10:08:38;;;;;;;6.13;4.40;;;;;;;0.55;64.11;98541.19;4905190;29;20059;-83
2021/01/11 10:11:11;;;;;;;;;;;;;;;0.69;62.79;98531.97;4904818;29;20057;-83
2021/01/11 10:13:36;;;;;;;4.47;3.03;;;;;;;0.62;62.79;98542.00;4914181;29;19915;-88
2021/01/11 10:16:02;;;;;;;7.40;3.53;;;;;;;0.54;62.90;98528.78;4912663;29;20036;-90
2021/01/11 10:18:28;;;;;;;7.00;3.45;;;;;;;0.63;63.30;98527.47;4915962;29;20052;-90
2021/01/11 10:20:53;;;;;;;;;;;;;;;1.03;62.92;98528.00;4915739;29;20545;-89
2021/01/11 10:23:19;;;;;;;5.97;3.40;;;;;;;0.76;61.20;98522.00;4902139;29;20444;-91
2021/01/11 10:25:44;;;;;;;6.78;3.08;;;;;;;0.68;61.63;98519.59;4901914;29;20513;-89
2021/01/11 10:28:09;;;;;;;5.03;3.60;;;;;;;0.75;62.24;98533.78;4903662;29;20076;-86
2021/01/11 10:30:35;;;;;;;5.45;2.97;;;;;;;0.86;61.44;98532.28;4918411;29;20060;-84
2021/01/11 10:33:00;;;;;;;4.95;2.70;;;;;;;0.62;62.33;98528.53;4916113;29;20043;-85
2021/01/11 10:35:26;;;;;;;5.47;3.10;;;;;;;0.49;62.82;98516.00;4918059;29;20012;-86
2021/01/11 10:37:51;;;;;;;;;;;;;;;0.57;61.92;98522.97;4918232;29;20028;-86
2021/01/11 10:40:16;;;;;;;3.88;2.20;;;;;;;0.64;61.37;98521.06;4920980;29;19899;-87
2021/01/11 10:42:41;;;;;;;;;;;;;;;0.54;62.05;98521.53;4937478;29;20000;-89
2021/01/11 10:45:07;;;;;;;6.38;3.55;;;;;;;0.58;61.47;98516.53;4921127;29;19919;-92
2021/01/11 10:47:33;;;;;;;;;;;;;;;0.68;61.13;98521.44;4921264;29;20035;-88
2021/01/11 10:49:58;;;;;;;5.03;2.95;;;;;;;0.55;60.90;98503.53;4936166;29;19930;-87
2021/01/11 10:52:23;;;;;;;;;;;;;;;0.55;61.80;98514.28;4912617;29;20048;-91
2021/01/11 10:54:49;;;;;;;3.10;2.60;;;;;;;0.60;60.34;98501.00;4919260;29;19997;-87
2021/01/11 10:57:14;;;;;;;;;;;;;;;0.63;61.67;98507.84;4902623;29;20116;-86
2021/01/11 10:59:39;;;;;;;4.25;2.70;;;;;;;0.58;61.20;98503.09;4934749;29;19913;-91
2021/01/11 11:02:05;;;;;;;;;;;;;;;0.76;60.46;98508.53;4919897;29;20027;-85
2021/01/11 11:04:30;;;;;;;4.28;2.25;;;;;;;0.72;60.58;98479.59;4935065;29;19979;-86
2021/01/11 11:06:59;;;;;;;3.30;2.35;;;;;;;0.90;61.29;98491.25;4920295;29;20056;-87
2021/01/11 11:09:25;;;;;;;4.60;2.58;;;;;;;0.74;59.98;98467.56;4937441;29;20091;-86
2021/01/11 11:12:00;;;;;;;4.75;3.40;;;;;;;0.75;60.80;98455.72;4923129;29;20031;-89
2021/01/11 11:14:26;;;;;;;6.78;3.35;;;;;;;0.97;60.83;98470.44;4941329;29;20040;-87
2021/01/11 11:16:53;;;;;;;7.60;3.38;;;;;;;1.01;60.37;98466.28;4941024;29;20028;-86
2021/01/11 11:19:19;;;;;;;6.50;3.13;;;;;;;1.11;59.28;98494.56;4942703;29;20021;-86
2021/01/11 11:21:45;;;;;;;4.80;3.22;;;;;;;0.94;60.12;98438.56;4926000;29;20148;-88
2021/01/11 11:24:11;;;;;;;4.30;2.58;;;;;;;0.89;59.62;98445.69;4924774;29;20104;-84
2021/01/11 11:26:36;;;;;;;;;;;;;;;1.06;59.82;98474.53;4941816;29;20048;-89
2021/01/11 11:29:02;;;;;;;4.50;2.58;;;;;;;1.18;60.46;98465.72;4941830;29;19919;-83
2021/01/11 11:31:33;;;;;;;;;;;;;;;1.40;59.22;98458.84;4940933;29;20512;-87
2021/01/11 11:33:59;;;;;;;4.13;2.78;;;;;;;1.43;59.39;98437.66;4942646;29;19911;-89
2021/01/11 11:36:25;;;;;;;5.80;3.03;;;;;;;1.43;58.17;98437.66;4924322;29;20036;-88
2021/01/11 11:38:50;;;;;;;6.60;3.17;;;;;;;1.25;58.89;98436.84;4941137;29;20011;-87
2021/01/11 11:41:20;;;;;;;4.15;3.42;;;;;;;1.31;59.91;98441.31;4923739;29;20028;-86
2021/01/11 11:43:46;;;;;;;5.10;3.42;;;;;;;1.24;58.43;98427.09;4923510;29;20016;-88
2021/01/11 11:46:13;;;;;;;9.88;3.78;;;;;;;1.50;59.33;98448.38;4924952;29;20032;-89
2021/01/11 11:48:39;;;;;;;3.83;2.53;;;;;;;1.37;59.09;98414.31;4941334;29;20054;-86
2021/01/11 11:51:05;;;;;;;4.10;3.30;;;;;;;1.39;59.05;98389.81;4922160;29;20028;-86